Time;durP1;ratioP1;P1;durP2;ratioP2;P2;SDS_P1;SDS_P2;PMS_P1;PMS_P2;Temp;Humidity;BMP_temperature;BMP_pressure;BME280_temperature;BME280_humidity;BME280_pressure;Samples;Min_cycle;Max_cycle;Signal;HPM_P1;HPM_P2
2023/09/08 00:01:19;;;;;;;15.23;8.93;;;;;;;20.63;66.15;101626.03;5042927;28;20031;-66
2023/09/08 00:03:45;;;;;;;15.93;9.55;;;;;;;20.57;66.57;101622.34;5038940;28;20033;-66
2023/09/08 00:06:10;;;;;;;12.82;9.10;;;;;;;20.54;66.63;101614.69;5046739;28;20100;-66
2023/09/08 00:08:35;;;;;;;17.88;9.43;;;;;;;20.55;66.45;101616.31;5041134;28;20124;-65
2023/09/08 00:11:01;;;;;;;10.82;9.13;;;;;;;20.53;66.53;101626.50;5043708;28;20970;-66
2023/09/08 00:13:26;;;;;;;14.35;9.25;;;;;;;20.50;66.61;101628.78;5043371;28;20071;-66
2023/09/08 00:15:51;;;;;;;15.25;9.27;;;;;;;20.49;66.89;101619.88;5043609;28;20035;-66
2023/09/08 00:18:16;;;;;;;13.85;9.18;;;;;;;20.49;66.65;101633.34;5042823;28;20021;-65
2023/09/08 00:20:42;;;;;;;12.82;8.98;;;;;;;20.47;66.79;101627.34;5040880;28;20044;-66
2023/09/08 00:23:07;;;;;;;19.90;9.45;;;;;;;20.43;66.87;101636.94;5041710;28;20021;-66
2023/09/08 00:25:34;;;;;;;13.07;9.25;;;;;;;20.41;66.88;101641.72;5043352;28;20132;-66
2023/09/08 00:27:59;;;;;;;12.95;9.25;;;;;;;20.37;67.01;101640.47;5037134;28;20044;-66
2023/09/08 00:30:24;;;;;;;12.85;8.85;;;;;;;20.36;67.26;101639.63;5041437;28;20037;-66
2023/09/08 00:32:50;;;;;;;11.88;9.13;;;;;;;20.36;67.13;101638.81;5038404;28;20147;-66
2023/09/08 00:35:15;;;;;;;12.90;9.10;;;;;;;20.33;67.17;101631.97;5041591;28;20028;-66
2023/09/08 00:37:40;;;;;;;16.13;9.20;;;;;;;20.32;67.22;101635.72;5040403;28;20940;-66
2023/09/08 00:40:08;;;;;;;14.65;9.50;;;;;;;20.30;67.41;101634.28;5042653;28;20052;-66
2023/09/08 00:42:33;;;;;;;11.60;9.38;;;;;;;20.27;67.44;101635.56;5036711;28;20012;-66
2023/09/08 00:44:58;;;;;;;14.02;8.82;;;;;;;20.27;67.49;101635.56;5038311;28;20041;-67
2023/09/08 00:47:24;;;;;;;12.15;9.43;;;;;;;20.20;67.85;101631.19;5036722;28;20028;-66
2023/09/08 00:49:51;;;;;;;15.98;9.50;;;;;;;20.18;67.56;101628.72;5040265;28;20518;-66
2023/09/08 00:52:16;;;;;;;14.32;9.27;;;;;;;20.19;67.82;101629.56;5038754;28;20032;-66
2023/09/08 00:54:42;;;;;;;16.40;10.10;;;;;;;20.18;67.65;101633.28;5041874;28;20029;-66
2023/09/08 00:57:09;;;;;;;14.50;9.48;;;;;;;20.15;67.99;101633.72;5036782;28;20021;-66
2023/09/08 00:59:35;;;;;;;11.45;9.05;;;;;;;20.13;67.94;101627.72;5042063;28;20037;-66
2023/09/08 01:02:02;;;;;;;16.10;9.77;;;;;;;20.05;68.19;101628.78;5041729;28;20508;-66
2023/09/08 01:04:28;;;;;;;10.98;9.00;;;;;;;19.99;68.23;101630.47;5042009;28;20017;-66
2023/09/08 01:06:55;;;;;;;12.80;9.50;;;;;;;19.97;68.25;101627.19;5041936;28;20083;-66
2023/09/08 01:09:21;;;;;;;12.90;9.77;;;;;;;19.94;68.58;101622.19;5038831;28;20020;-66
2023/09/08 01:11:47;;;;;;;14.75;8.93;;;;;;;19.92;68.83;101626.13;5037673;28;20029;-66
2023/09/08 01:14:13;;;;;;;12.80;8.88;;;;;;;19.88;68.92;101617.66;5039864;28;20017;-66
2023/09/08 01:16:40;;;;;;;12.00;9.77;;;;;;;19.86;68.91;101619.72;5041653;28;20025;-66
2023/09/08 01:19:10;;;;;;;12.60;9.50;;;;;;;19.84;68.98;101632.59;5039497;28;20158;-66
2023/09/08 01:21:58;;;;;;;15.40;9.52;;;;;;;19.84;69.38;101626.38;5034806;28;20049;-66
2023/09/08 01:24:35;;;;;;;12.63;9.60;;;;;;;19.79;69.52;101638.63;5041521;28;20133;-66
2023/09/08 01:27:01;;;;;;;12.07;9.38;;;;;;;19.72;69.30;101628.91;5040072;28;20521;-66
2023/09/08 01:29:29;;;;;;;14.45;9.68;;;;;;;19.69;69.71;101630.16;5041488;28;20021;-66
2023/09/08 01:31:55;;;;;;;13.75;9.32;;;;;;;19.62;69.67;101636.59;5040275;28;20025;-66
2023/09/08 01:34:21;;;;;;;13.43;10.05;;;;;;;19.65;69.92;101633.47;5033168;28;20021;-66
2023/09/08 01:36:46;;;;;;;14.75;9.93;;;;;;;19.57;70.02;101631.84;5035962;28;20552;-66
2023/09/08 01:39:12;;;;;;;13.40;10.05;;;;;;;19.62;70.19;101628.50;5042363;28;20074;-66
2023/09/08 01:41:37;;;;;;;14.20;10.38;;;;;;;19.62;70.40;101633.91;5041058;28;20028;-66
2023/09/08 01:44:07;;;;;;;13.40;9.95;;;;;;;19.60;70.34;101631.41;5043266;28;20057;-66
2023/09/08 01:46:33;;;;;;;11.38;9.88;;;;;;;19.57;70.50;101631.84;5042591;28;20374;-66
2023/09/08 01:48:58;;;;;;;12.88;9.65;;;;;;;19.57;70.80;101631.84;5038109;28;20025;-66
2023/09/08 01:51:24;;;;;;;12.05;9.95;;;;;;;19.46;70.66;101624.38;5042935;28;20025;-66
2023/09/08 01:53:49;;;;;;;15.38;9.85;;;;;;;19.34;70.91;101626.88;5037857;28;20036;-66
2023/09/08 01:56:14;;;;;;;14.80;10.25;;;;;;;19.32;71.17;101620.84;5045547;28;20199;-66
2023/09/08 01:58:39;;;;;;;13.02;10.00;;;;;;;19.23;71.45;101622.13;5039995;28;20021;-66
2023/09/08 02:01:05;;;;;;;11.68;10.45;;;;;;;19.18;71.81;101622.75;5039366;28;20025;-66
2023/09/08 02:03:31;;;;;;;15.05;10.07;;;;;;;19.14;71.96;101626.06;5034977;28;20034;-66
2023/09/08 02:05:57;;;;;;;14.40;10.25;;;;;;;19.17;71.94;101622.97;5036118;28;20055;-66
2023/09/08 02:08:22;;;;;;;14.45;10.93;;;;;;;19.17;71.86;101625.66;5038792;28;20049;-66
2023/09/08 02:10:47;;;;;;;15.35;10.70;;;;;;;19.14;71.88;101620.69;5037058;28;20716;-66
2023/09/08 02:13:12;;;;;;;17.10;10.88;;;;;;;19.14;72.21;101618.00;5039496;28;20112;-66
2023/09/08 02:15:38;;;;;;;15.18;10.95;;;;;;;19.13;72.08;101617.16;5038747;28;20033;-66
2023/09/08 02:18:03;;;;;;;13.40;9.95;;;;;;;19.13;72.53;101621.72;5035350;28;20482;-66
2023/09/08 02:20:29;;;;;;;15.35;11.25;;;;;;;19.06;72.43;101620.88;5033703;28;20053;-65
2023/09/08 02:22:54;;;;;;;13.15;11.07;;;;;;;19.03;72.73;101615.91;5040330;28;20036;-66
2023/09/08 02:25:20;;;;;;;14.07;10.70;;;;;;;18.99;72.89;101612.81;5046391;28;20482;-66
2023/09/08 02:27:45;;;;;;;12.73;10.32;;;;;;;18.96;72.93;101618.59;5038172;28;20090;-66
2023/09/08 02:30:11;;;;;;;13.63;10.70;;;;;;;18.94;73.03;101617.16;5036905;28;20143;-66
2023/09/08 02:32:36;;;;;;;15.32;10.65;;;;;;;18.92;72.92;101611.97;5040912;28;20061;-66
2023/09/08 02:35:01;;;;;;;14.07;11.13;;;;;;;18.94;73.24;101609.91;5044789;28;20474;-66
2023/09/08 02:37:27;;;;;;;15.40;11.23;;;;;;;18.95;73.41;101611.56;5033581;28;20026;-66
2023/09/08 02:39:52;;;;;;;14.52;11.13;;;;;;;18.95;73.52;101614.25;5046711;28;20028;-65
2023/09/08 02:42:17;;;;;;;18.98;10.95;;;;;;;18.96;73.38;101601.63;5037274;28;21598;-66
2023/09/08 02:44:43;;;;;;;13.15;10.70;;;;;;;18.87;73.71;101601.84;5040782;28;20162;-66
2023/09/08 02:47:10;;;;;;;13.52;10.23;;;;;;;18.73;73.73;101612.78;5041296;28;20096;-66
2023/09/08 02:49:35;;;;;;;14.18;10.10;;;;;;;18.62;74.15;101611.53;5047469;28;20029;-66
2023/09/08 02:52:00;;;;;;;13.93;10.18;;;;;;;18.59;74.28;101611.91;5040049;28;20425;-66
2023/09/08 02:54:25;;;;;;;16.55;10.45;;;;;;;18.55;74.66;101611.50;5037508;28;20044;-66
2023/09/08 02:56:51;;;;;;;12.68;10.38;;;;;;;18.58;74.57;101615.66;5044645;28;20107;-66
2023/09/08 02:59:16;;;;;;;15.07;11.35;;;;;;;18.53;74.68;101613.56;5040249;28;20045;-66
2023/09/08 03:01:42;;;;;;;12.50;11.02;;;;;;;18.53;75.11;101610.88;5044595;28;20033;-66
2023/09/08 03:04:08;;;;;;;15.65;10.73;;;;;;;18.48;75.60;101613.31;5045215;28;20397;-65
2023/09/08 03:06:34;;;;;;;14.45;10.65;;;;;;;18.44;75.35;101613.94;5044131;28;20021;-65
2023/09/08 03:08:59;;;;;;;17.92;10.68;;;;;;;18.49;75.31;101617.69;5040995;28;20026;-65
2023/09/08 03:11:24;;;;;;;13.20;10.35;;;;;;;18.37;75.30;101613.09;5038496;28;20110;-67
2023/09/08 03:13:50;;;;;;;15.88;10.80;;;;;;;18.24;75.34;101609.34;5038011;28;20522;-65
2023/09/08 03:16:15;;;;;;;15.00;10.93;;;;;;;18.27;75.75;101611.66;5039600;28;20036;-66
2023/09/08 03:18:41;;;;;;;16.67;12.20;;;;;;;18.27;75.91;101613.50;5039846;28;20060;-65
2023/09/08 03:21:09;;;;;;;17.02;11.50;;;;;;;18.30;76.17;101612.28;5039325;28;20049;-65
2023/09/08 03:23:42;;;;;;;14.73;11.45;;;;;;;18.29;76.26;101614.13;5036095;28;20064;-66
2023/09/08 03:26:08;;;;;;;14.27;11.82;;;;;;;18.27;76.27;101602.75;5037585;28;20090;-66
2023/09/08 03:28:35;;;;;;;15.60;11.68;;;;;;;18.30;76.30;101609.56;5043654;28;20033;-66
2023/09/08 03:31:01;;;;;;;12.07;10.43;;;;;;;18.29;76.41;101605.22;5043886;28;20052;-65
2023/09/08 03:33:27;;;;;;;14.57;10.57;;;;;;;18.23;76.25;101606.88;5036950;28;20029;-65
2023/09/08 03:35:52;;;;;;;14.02;11.77;;;;;;;18.23;76.51;101602.31;5042880;28;20091;-66
2023/09/08 03:38:17;;;;;;;15.40;11.30;;;;;;;18.23;76.65;101610.41;5044375;28;20021;-66
2023/09/08 03:40:43;;;;;;;14.27;11.30;;;;;;;18.19;76.77;101601.03;5041048;28;20079;-66
2023/09/08 03:43:08;;;;;;;14.43;11.15;;;;;;;18.15;77.05;101602.47;5037764;28;20021;-65
2023/09/08 03:45:33;;;;;;;20.00;11.98;;;;;;;18.15;76.77;101602.47;5039382;28;20576;-66
2023/09/08 03:47:59;;;;;;;17.42;12.27;;;;;;;18.10;77.21;101596.88;5039570;28;20036;-66
2023/09/08 03:50:24;;;;;;;15.93;11.65;;;;;;;18.12;77.37;101605.56;5040983;28;20021;-66
2023/09/08 03:52:50;;;;;;;16.73;11.27;;;;;;;18.12;77.39;101596.69;5041238;28;20053;-65
2023/09/08 03:55:16;;;;;;;17.13;11.75;;;;;;;18.11;77.20;101598.53;5044483;28;20032;-66
2023/09/08 03:57:42;;;;;;;20.25;12.23;;;;;;;18.08;77.47;101595.44;5046859;28;20037;-65
2023/09/08 04:00:10;;;;;;;16.02;12.00;;;;;;;18.03;77.49;101598.72;5044016;28;20112;-65
2023/09/08 04:02:35;;;;;;;13.68;11.55;;;;;;;18.05;77.48;101593.97;5045481;28;20044;-65
2023/09/08 04:05:00;;;;;;;16.02;12.25;;;;;;;18.05;77.24;101591.28;5035946;28;20039;-66
2023/09/08 04:07:26;;;;;;;12.98;11.63;;;;;;;18.02;77.50;101594.38;5040734;28;20075;-66
2023/09/08 04:09:51;;;;;;;15.35;12.40;;;;;;;18.01;77.74;101597.28;5035940;28;20041;-65
2023/09/08 04:12:16;;;;;;;15.77;12.02;;;;;;;18.01;77.64;101592.72;5040234;28;20474;-66
2023/09/08 04:14:41;;;;;;;15.63;12.18;;;;;;;18.00;77.47;101591.06;5036067;28;20033;-66
2023/09/08 04:17:07;;;;;;;16.00;12.82;;;;;;;18.00;77.71;101591.06;5038651;28;20047;-65
2023/09/08 04:19:33;;;;;;;17.98;13.35;;;;;;;18.01;77.44;101589.22;5043190;28;20501;-66
2023/09/08 04:21:58;;;;;;;16.85;12.40;;;;;;;17.95;77.91;101585.47;5040036;28;20033;-66
2023/09/08 04:24:23;;;;;;;17.17;12.43;;;;;;;17.94;77.67;101581.97;5047505;28;20031;-65
2023/09/08 04:26:48;;;;;;;20.52;12.32;;;;;;;17.89;77.73;101587.09;5045489;28;20018;-66
2023/09/08 04:29:14;;;;;;;15.15;12.60;;;;;;;17.90;77.58;101583.38;5055166;28;20020;-65
2023/09/08 04:31:39;;;;;;;17.10;13.65;;;;;;;17.89;77.72;101587.09;5044088;28;20029;-66
2023/09/08 04:34:04;;;;;;;17.52;13.32;;;;;;;17.87;78.00;101581.09;5046537;28;20040;-65
2023/09/08 04:36:30;;;;;;;18.85;14.20;;;;;;;17.88;77.77;101584.59;5037316;28;20585;-66
2023/09/08 04:38:56;;;;;;;15.75;13.07;;;;;;;17.86;78.16;101583.97;5040162;28;20025;-66
2023/09/08 04:41:21;;;;;;;17.17;13.73;;;;;;;17.84;78.04;101583.34;5042494;28;20917;-66
2023/09/08 04:43:46;;;;;;;22.08;13.75;;;;;;;17.81;78.23;101581.88;5042781;28;20061;-66
2023/09/08 04:46:12;;;;;;;18.48;13.43;;;;;;;17.79;78.26;101575.06;5040839;28;20498;-66
2023/09/08 04:48:37;;;;;;;16.17;13.48;;;;;;;17.75;78.33;101580.00;5042369;28;20037;-66
2023/09/08 04:51:02;;;;;;;15.10;13.07;;;;;;;17.71;78.31;101578.75;5043245;28;20025;-66
2023/09/08 04:53:27;;;;;;;20.20;13.43;;;;;;;17.70;78.64;101587.84;5044611;28;20462;-66
2023/09/08 04:55:53;;;;;;;25.13;14.48;;;;;;;17.74;78.65;101581.03;5035409;28;20026;-66
2023/09/08 04:58:18;;;;;;;17.25;13.60;;;;;;;17.75;78.49;101588.06;5040295;28;20029;-65
2023/09/08 05:00:43;;;;;;;18.30;13.75;;;;;;;17.73;78.91;101584.75;5039217;28;20442;-65
2023/09/08 05:03:09;;;;;;;19.98;13.93;;;;;;;17.73;78.98;101586.59;5038732;28;20068;-66
2023/09/08 05:05:34;;;;;;;20.52;14.63;;;;;;;17.74;78.82;101589.09;5045859;28;20037;-66
2023/09/08 05:07:59;;;;;;;22.58;14.57;;;;;;;17.72;78.95;101590.31;5046633;28;20385;-66
2023/09/08 05:10:25;;;;;;;16.63;13.98;;;;;;;17.75;78.92;101593.44;5038976;28;20021;-65
2023/09/08 05:12:50;;;;;;;18.33;14.05;;;;;;;17.71;78.88;101592.19;5034574;28;20033;-66
2023/09/08 05:15:16;;;;;;;20.50;14.75;;;;;;;17.69;79.10;101588.03;5033879;28;20059;-65
2023/09/08 05:17:42;;;;;;;21.70;15.02;;;;;;;17.71;79.45;101591.34;5040494;28;20025;-66
2023/09/08 05:20:08;;;;;;;19.52;14.25;;;;;;;17.73;79.15;101595.50;5041895;28;20105;-65
2023/09/08 05:22:34;;;;;;;21.10;14.23;;;;;;;17.73;79.48;101592.81;5036761;28;20016;-66
2023/09/08 05:24:59;;;;;;;17.65;13.90;;;;;;;17.74;79.13;101599.00;5038363;28;20039;-66
2023/09/08 05:27:24;;;;;;;19.70;14.85;;;;;;;17.73;79.31;101595.50;5039973;28;20028;-65
2023/09/08 05:29:49;;;;;;;20.05;14.60;;;;;;;17.71;79.57;101594.03;5034247;28;20413;-66
2023/09/08 05:32:15;;;;;;;17.13;14.07;;;;;;;17.72;79.76;101601.06;5039465;28;20033;-66
2023/09/08 05:34:40;;;;;;;22.08;14.88;;;;;;;17.77;79.50;101604.00;5035114;28;20029;-65
2023/09/08 05:37:05;;;;;;;21.67;14.73;;;;;;;17.79;79.59;101600.06;5035831;28;20149;-65
2023/09/08 05:39:31;;;;;;;18.42;14.82;;;;;;;17.83;79.46;101592.44;5044538;28;21651;-66
2023/09/08 05:41:56;;;;;;;19.38;15.45;;;;;;;17.85;79.58;101598.44;5044813;28;20025;-66
2023/09/08 05:44:21;;;;;;;20.25;15.88;;;;;;;17.93;79.76;101600.97;5040412;28;20683;-65
2023/09/08 05:46:47;;;;;;;19.13;15.70;;;;;;;17.95;79.30;101612.34;5034523;28;20021;-66
2023/09/08 05:49:12;;;;;;;18.48;15.25;;;;;;;18.00;79.79;101609.88;5046330;28;20090;-66
2023/09/08 05:51:37;;;;;;;25.33;15.43;;;;;;;18.03;79.45;101612.16;5041105;28;20035;-65
2023/09/08 05:54:03;;;;;;;18.98;15.63;;;;;;;18.09;79.34;101611.34;5041101;28;20025;-65
2023/09/08 05:56:31;;;;;;;18.95;15.70;;;;;;;18.12;79.48;101618.19;5038691;28;20025;-66
2023/09/08 05:58:58;;;;;;;17.83;15.50;;;;;;;18.25;79.27;101618.25;5045226;28;20381;-66
2023/09/08 06:01:24;;;;;;;22.00;16.52;;;;;;;18.29;79.15;101619.50;5054896;28;20102;-65
2023/09/08 06:03:49;;;;;;;19.42;15.85;;;;;;;18.30;78.89;101618.47;5037601;28;20115;-66
2023/09/08 06:06:14;;;;;;;22.13;15.95;;;;;;;18.36;78.75;101620.34;5045042;28;20028;-66
2023/09/08 06:08:40;;;;;;;18.52;15.48;;;;;;;18.46;78.97;101617.25;5050630;28;20025;-66
2023/09/08 06:11:05;;;;;;;24.38;16.33;;;;;;;18.54;78.79;101625.16;5047771;28;20032;-66
2023/09/08 06:13:30;;;;;;;22.77;16.55;;;;;;;18.57;78.67;101616.69;5044159;28;20112;-66
2023/09/08 06:15:55;;;;;;;20.42;16.67;;;;;;;18.63;78.41;101628.50;5046304;28;20025;-67
2023/09/08 06:18:21;;;;;;;20.45;16.50;;;;;;;18.70;78.62;101622.09;5031626;28;20044;-67
2023/09/08 06:20:47;;;;;;;19.67;15.85;;;;;;;18.77;78.29;101627.47;5043832;28;20028;-67
2023/09/08 06:23:13;;;;;;;26.48;16.60;;;;;;;18.79;78.18;101623.59;5040244;28;20046;-66
2023/09/08 06:25:38;;;;;;;21.85;16.95;;;;;;;18.89;78.23;101620.47;5039574;28;20489;-67
2023/09/08 06:28:03;;;;;;;19.95;16.75;;;;;;;18.91;78.06;101621.09;5040363;28;20052;-66
2023/09/08 06:30:29;;;;;;;26.52;17.80;;;;;;;19.00;77.92;101625.22;5039712;28;20029;-67
2023/09/08 06:32:54;;;;;;;20.42;16.77;;;;;;;19.08;77.95;101627.75;5045947;28;20094;-66
2023/09/08 06:35:19;;;;;;;21.17;16.58;;;;;;;19.17;78.10;101631.03;5038030;28;20025;-66
2023/09/08 06:37:44;;;;;;;20.85;17.67;;;;;;;19.23;77.82;101632.91;5041649;28;20367;-67
2023/09/08 06:40:10;;;;;;;19.98;16.83;;;;;;;19.39;77.38;101635.16;5048787;28;20047;-66
2023/09/08 06:42:35;;;;;;;22.52;17.00;;;;;;;19.45;76.78;101630.81;5036637;28;20036;-67
2023/09/08 06:45:01;;;;;;;20.80;17.40;;;;;;;19.59;77.18;101632.44;5045150;28;20040;-66
2023/09/08 06:47:26;;;;;;;20.30;17.83;;;;;;;19.57;76.91;101626.44;5037404;28;20035;-66
2023/09/08 06:49:51;;;;;;;21.27;16.88;;;;;;;19.73;76.79;101635.97;5045005;28;20115;-66
2023/09/08 06:52:17;;;;;;;20.20;16.90;;;;;;;19.74;76.63;101638.44;5037109;28;20039;-67
2023/09/08 06:54:42;;;;;;;21.27;17.42;;;;;;;19.78;76.36;101633.44;5041915;28;21464;-66
2023/09/08 06:57:07;;;;;;;20.35;17.77;;;;;;;19.90;76.71;101641.69;5030370;28;20030;-66
2023/09/08 06:59:33;;;;;;;23.95;17.23;;;;;;;19.91;76.42;101633.41;5032393;28;20127;-66
2023/09/08 07:01:58;;;;;;;22.50;16.52;;;;;;;20.02;76.34;101640.84;5030929;28;20436;-66
2023/09/08 07:04:23;;;;;;;19.70;16.95;;;;;;;19.99;76.00;101643.13;5038875;28;20027;-66
2023/09/08 07:06:50;;;;;;;19.63;17.23;;;;;;;20.06;75.89;101647.47;5035703;28;20482;-66
2023/09/08 07:09:15;;;;;;;22.95;16.35;;;;;;;20.10;75.89;101634.38;5044565;28;20555;-67
2023/09/08 07:11:40;;;;;;;20.80;16.98;;;;;;;20.14;75.71;101646.38;5043096;28;20064;-66
2023/09/08 07:14:06;;;;;;;22.35;17.38;;;;;;;20.23;75.71;101646.94;5048716;28;20029;-66
2023/09/08 07:16:31;;;;;;;22.98;17.45;;;;;;;20.33;76.21;101650.03;5043676;28;20035;-66
2023/09/08 07:18:56;;;;;;;21.30;17.38;;;;;;;20.39;76.55;101651.88;5047942;28;20028;-66
2023/09/08 07:21:21;;;;;;;21.13;17.60;;;;;;;20.40;76.25;101656.25;5051296;28;20017;-66
2023/09/08 07:23:47;;;;;;;22.50;17.30;;;;;;;20.44;76.02;101648.56;5032389;28;20037;-66
2023/09/08 07:26:12;;;;;;;21.80;17.98;;;;;;;20.44;76.11;101638.59;5040856;28;20064;-66
2023/09/08 07:28:37;;;;;;;20.25;17.17;;;;;;;20.58;76.31;101650.16;5031002;28;20482;-66
2023/09/08 07:31:04;;;;;;;22.88;17.25;;;;;;;20.58;75.75;101650.16;5030869;28;20596;-66
2023/09/08 07:33:29;;;;;;;22.20;16.83;;;;;;;20.64;75.38;101647.41;5040243;28;20028;-66
2023/09/08 07:35:55;;;;;;;23.55;17.15;;;;;;;20.75;75.76;101645.03;5049450;28;20021;-66
2023/09/08 07:38:20;;;;;;;22.67;17.75;;;;;;;20.80;75.93;101648.72;5049987;28;20020;-67
2023/09/08 07:40:45;;;;;;;20.90;16.92;;;;;;;20.89;75.93;101652.00;5048594;28;20040;-66
2023/09/08 07:43:10;;;;;;;20.30;17.73;;;;;;;20.89;75.62;101652.84;5034455;28;20063;-66
2023/09/08 07:45:36;;;;;;;20.80;16.75;;;;;;;20.99;75.08;101649.66;5031015;28;20028;-67
2023/09/08 07:48:01;;;;;;;20.13;17.30;;;;;;;21.10;75.67;101657.03;5041507;28;20032;-66
2023/09/08 07:50:28;;;;;;;19.55;16.58;;;;;;;21.16;75.88;101652.63;5036184;28;20560;-66
2023/09/08 07:52:56;;;;;;;20.85;17.10;;;;;;;21.31;75.98;101653.97;5042054;28;20079;-67
2023/09/08 07:55:23;;;;;;;24.67;16.90;;;;;;;21.34;75.56;101653.53;5030896;28;20056;-67
2023/09/08 07:57:49;;;;;;;21.90;16.27;;;;;;;21.47;75.44;101654.47;5038161;28;20025;-67
2023/09/08 08:00:15;;;;;;;21.25;16.20;;;;;;;21.54;75.18;101650.63;5041507;28;21198;-66
2023/09/08 08:02:49;;;;;;;23.27;15.20;;;;;;;21.62;74.76;101652.22;5032110;28;20067;-66
2023/09/08 08:05:15;;;;;;;16.38;14.27;;;;;;;21.74;74.63;101658.56;5047367;28;20116;-66
2023/09/08 08:07:41;;;;;;;19.17;13.73;;;;;;;21.78;74.61;101646.22;5039265;28;20108;-66
2023/09/08 08:10:07;;;;;;;18.35;13.98;;;;;;;21.89;74.06;101641.94;5038005;28;20136;-66
2023/09/08 08:12:33;;;;;;;21.67;13.73;;;;;;;21.94;73.36;101640.22;5047356;28;20029;-66
2023/09/08 08:14:58;;;;;;;19.63;13.68;;;;;;;22.06;73.64;101642.19;5040948;28;20065;-67
2023/09/08 08:17:24;;;;;;;17.13;13.30;;;;;;;22.12;73.42;101638.59;5038924;28;20017;-67
2023/09/08 08:19:50;;;;;;;18.13;13.57;;;;;;;22.18;73.50;101645.78;5030605;28;20029;-66
2023/09/08 08:22:15;;;;;;;19.33;13.20;;;;;;;22.26;73.49;101640.03;5032780;28;20029;-66
2023/09/08 08:24:40;;;;;;;15.15;13.15;;;;;;;22.29;73.38;101649.63;5044026;28;20552;-66
2023/09/08 08:27:06;;;;;;;15.40;12.75;;;;;;;22.39;73.08;101641.75;5039453;28;20052;-66
2023/09/08 08:29:31;;;;;;;17.58;12.65;;;;;;;22.44;72.98;101648.13;5037866;28;20024;-65
2023/09/08 08:31:56;;;;;;;14.35;12.40;;;;;;;22.50;72.82;101646.38;5046103;28;20037;-65
2023/09/08 08:34:21;;;;;;;19.40;12.65;;;;;;;22.58;72.68;101650.69;5044092;28;20440;-64
2023/09/08 08:36:47;;;;;;;15.57;12.45;;;;;;;22.64;72.63;101655.16;5044609;28;20116;-65
2023/09/08 08:39:12;;;;;;;17.40;12.70;;;;;;;22.73;72.89;101653.78;5042708;28;20052;-65
2023/09/08 08:41:39;;;;;;;16.83;12.25;;;;;;;22.78;72.67;101656.59;5041962;28;20041;-65
2023/09/08 08:44:08;;;;;;;14.25;12.70;;;;;;;22.83;72.79;101657.59;5035858;28;20024;-65
2023/09/08 08:46:36;;;;;;;21.35;13.13;;;;;;;22.91;72.59;101653.75;5041158;28;20539;-65
2023/09/08 08:49:03;;;;;;;13.88;11.27;;;;;;;22.99;71.94;101657.97;5034433;28;20143;-66
2023/09/08 08:51:30;;;;;;;16.77;11.50;;;;;;;23.10;71.69;101660.69;5039753;28;20057;-66
2023/09/08 08:53:56;;;;;;;14.60;11.38;;;;;;;23.20;71.73;101653.91;5035497;28;20029;-65
2023/09/08 08:56:22;;;;;;;13.35;11.80;;;;;;;23.32;71.06;101655.53;5045250;28;20028;-66
2023/09/08 08:58:49;;;;;;;15.43;11.23;;;;;;;23.37;70.69;101644.81;5039292;28;20064;-66
2023/09/08 09:01:15;;;;;;;16.40;10.30;;;;;;;23.48;70.50;101649.44;5036524;28;20040;-66
2023/09/08 09:03:42;;;;;;;12.48;9.70;;;;;;;23.60;70.53;101649.44;5034211;28;20037;-65
2023/09/08 09:06:09;;;;;;;13.35;9.55;;;;;;;23.67;70.02;101650.13;5040827;28;20363;-66
2023/09/08 09:08:37;;;;;;;12.65;9.30;;;;;;;23.75;69.50;101655.22;5038830;28;20058;-66
2023/09/08 09:11:02;;;;;;;11.52;9.80;;;;;;;23.86;69.79;101647.28;5043004;28;20025;-66
2023/09/08 09:13:27;;;;;;;16.33;9.00;;;;;;;23.92;69.39;101649.84;5033686;28;20025;-66
2023/09/08 09:15:58;;;;;;;13.02;9.48;;;;;;;24.01;68.68;101650.31;5044376;28;20047;-66
2023/09/08 09:18:23;;;;;;;11.13;9.98;;;;;;;24.10;68.29;101647.00;5039579;28;20041;-66
2023/09/08 09:20:55;;;;;;;10.25;8.70;;;;;;;24.19;67.94;101647.41;5039697;28;20032;-66
2023/09/08 09:23:32;;;;;;;14.25;9.50;;;;;;;24.32;67.73;101651.78;5043330;28;20071;-66
2023/09/08 09:25:58;;;;;;;13.45;10.05;;;;;;;24.50;67.32;101650.75;5064636;28;20028;-66
2023/09/08 09:28:24;;;;;;;12.38;9.68;;;;;;;24.68;66.74;101656.81;5033660;28;20025;-66
2023/09/08 09:30:52;;;;;;;10.85;8.93;;;;;;;24.79;66.35;101646.94;5037104;28;20100;-66
2023/09/08 09:33:18;;;;;;;15.38;9.63;;;;;;;25.03;66.15;101642.22;5030480;28;20024;-65
2023/09/08 09:35:46;;;;;;;12.13;9.80;;;;;;;25.18;65.52;101649.81;5036543;28;20037;-66
2023/09/08 09:38:12;;;;;;;12.15;8.93;;;;;;;25.29;64.88;101651.59;5034220;28;20684;-66
2023/09/08 09:40:38;;;;;;;9.73;8.73;;;;;;;25.46;64.28;101646.97;5048113;28;20107;-66
2023/09/08 09:43:07;;;;;;;11.95;9.05;;;;;;;25.77;64.50;101655.59;5034528;28;20017;-66
2023/09/08 09:45:34;;;;;;;12.23;8.77;;;;;;;25.75;63.72;101647.66;5034132;28;20033;-65
2023/09/08 09:47:59;;;;;;;10.68;8.60;;;;;;;25.95;63.50;101655.25;5035266;28;20021;-66
2023/09/08 09:50:33;;;;;;;13.20;8.07;;;;;;;26.06;62.65;101651.59;5046812;28;20033;-66
2023/09/08 09:53:00;;;;;;;10.45;7.68;;;;;;;26.23;62.52;101663.22;5036817;28;20147;-66
2023/09/08 09:55:26;;;;;;;10.63;7.72;;;;;;;26.24;62.16;101645.81;5046768;28;20052;-66
2023/09/08 09:57:55;;;;;;;9.98;7.82;;;;;;;26.40;62.21;101654.19;5039468;28;20030;-66
2023/09/08 10:00:21;;;;;;;11.07;8.55;;;;;;;26.64;61.94;101641.09;5041042;28;20435;-66
2023/09/08 10:02:46;;;;;;;12.88;9.23;;;;;;;26.78;62.49;101651.28;5029156;28;20054;-66
2023/09/08 10:05:13;;;;;;;14.45;9.68;;;;;;;26.88;62.29;101647.00;5027814;28;20653;-66
2023/09/08 10:07:40;;;;;;;14.43;9.60;;;;;;;26.94;61.41;101645.97;5028277;28;20056;-66
2023/09/08 10:10:06;;;;;;;13.95;10.55;;;;;;;26.95;61.21;101642.16;5029656;28;20023;-66
2023/09/08 10:12:35;;;;;;;12.68;9.45;;;;;;;27.03;61.22;101644.44;5039603;28;20100;-66
2023/09/08 10:15:03;;;;;;;13.55;8.98;;;;;;;27.10;61.13;101636.84;5054907;28;20017;-66
2023/09/08 10:17:30;;;;;;;14.00;8.60;;;;;;;27.13;60.44;101637.16;5036926;28;20609;-66
2023/09/08 10:20:00;;;;;;;13.65;8.30;;;;;;;27.24;60.13;101642.69;5027949;28;20617;-66
2023/09/08 10:22:30;;;;;;;10.30;8.68;;;;;;;27.42;59.54;101642.25;5036018;28;20104;-66
2023/09/08 10:25:00;;;;;;;15.15;8.82;;;;;;;27.59;59.59;101639.34;5047719;28;20681;-66
2023/09/08 10:27:26;;;;;;;13.93;8.50;;;;;;;27.69;59.16;101640.25;5037306;28;20028;-66
2023/09/08 10:29:53;;;;;;;10.02;8.00;;;;;;;27.70;58.34;101638.34;5043640;28;20067;-66
2023/09/08 10:32:20;;;;;;;12.00;7.97;;;;;;;27.85;57.65;101645.81;5047252;28;20028;-66
2023/09/08 10:34:47;;;;;;;13.20;7.28;;;;;;;27.90;57.30;101646.63;5029993;28;20032;-66
2023/09/08 10:37:25;;;;;;;12.32;7.70;;;;;;;27.94;57.90;101647.75;5037364;28;20017;-66
2023/09/08 10:39:50;;;;;;;10.27;7.43;;;;;;;27.97;57.25;101641.75;5047034;28;20055;-66
2023/09/08 10:42:23;;;;;;;11.65;7.60;;;;;;;28.13;57.13;101650.00;5047853;28;20025;-65
2023/09/08 10:44:49;;;;;;;10.65;7.03;;;;;;;28.17;57.31;101645.66;5044373;28;20473;-68
2023/09/08 10:47:18;;;;;;;9.02;6.47;;;;;;;28.17;56.68;101638.28;5048948;28;20027;-67
2023/09/08 10:49:45;;;;;;;9.40;7.00;;;;;;;28.26;56.41;101639.41;5039700;28;20382;-69
2023/09/08 10:52:12;;;;;;;11.38;7.18;;;;;;;28.32;56.22;101634.78;5032151;28;20044;-68
2023/09/08 10:54:44;;;;;;;12.00;7.18;;;;;;;28.46;56.26;101635.91;5038549;28;20033;-67
2023/09/08 10:57:14;;;;;;;9.38;7.38;;;;;;;28.58;56.57;101627.44;5045754;28;20033;-68
2023/09/08 10:59:44;;;;;;;11.15;7.38;;;;;;;28.66;56.57;101633.22;5032149;28;20029;-68
2023/09/08 11:02:33;;;;;;;12.60;7.35;;;;;;;28.69;56.60;101638.13;5045684;28;20103;-67
2023/09/08 11:04:58;;;;;;;9.23;6.88;;;;;;;28.74;56.42;101631.03;5044015;28;20080;-68
2023/09/08 11:07:24;;;;;;;12.50;7.18;;;;;;;28.92;56.08;101634.06;5049929;28;20615;-67